sensor_id;sensor_type;location;lat;lon;timestamp;temperature;humidity
76104;HTU21D;64831;44.870;37.336;2023-08-31T00:00:45;24.89;72.32
76104;HTU21D;64831;44.870;37.336;2023-08-31T00:03:12;24.93;72.29
76104;HTU21D;64831;44.870;37.336;2023-08-31T00:05:40;24.95;72.04
76104;HTU21D;64831;44.870;37.336;2023-08-31T00:08:06;24.97;72.26
76104;HTU21D;64831;44.870;37.336;2023-08-31T00:10:33;24.98;72.55
76104;HTU21D;64831;44.870;37.336;2023-08-31T00:13:04;24.97;72.70
76104;HTU21D;64831;44.870;37.336;2023-08-31T00:15:32;24.97;72.74
76104;HTU21D;64831;44.870;37.336;2023-08-31T00:18:02;24.93;73.06
76104;HTU21D;64831;44.870;37.336;2023-08-31T00:20:31;24.93;73.22
76104;HTU21D;64831;44.870;37.336;2023-08-31T00:22:59;24.93;73.14
76104;HTU21D;64831;44.870;37.336;2023-08-31T00:25:25;24.91;72.83
76104;HTU21D;64831;44.870;37.336;2023-08-31T00:27:52;24.90;72.56
76104;HTU21D;64831;44.870;37.336;2023-08-31T00:30:19;24.88;72.30
76104;HTU21D;64831;44.870;37.336;2023-08-31T00:32:45;24.85;72.21
76104;HTU21D;64831;44.870;37.336;2023-08-31T00:35:13;24.82;72.23
76104;HTU21D;64831;44.870;37.336;2023-08-31T00:37:39;24.82;72.07
76104;HTU21D;64831;44.870;37.336;2023-08-31T00:40:05;24.77;72.06
76104;HTU21D;64831;44.870;37.336;2023-08-31T00:42:32;24.72;72.06
76104;HTU21D;64831;44.870;37.336;2023-08-31T00:44:58;24.63;72.28
76104;HTU21D;64831;44.870;37.336;2023-08-31T00:47:25;24.55;72.32
76104;HTU21D;64831;44.870;37.336;2023-08-31T00:49:52;24.44;72.57
76104;HTU21D;64831;44.870;37.336;2023-08-31T00:52:19;24.39;72.58
76104;HTU21D;64831;44.870;37.336;2023-08-31T00:54:48;24.33;72.58
76104;HTU21D;64831;44.870;37.336;2023-08-31T00:57:17;24.28;72.54
76104;HTU21D;64831;44.870;37.336;2023-08-31T00:59:43;24.25;72.74
76104;HTU21D;64831;44.870;37.336;2023-08-31T01:05:15;24.26;72.71
76104;HTU21D;64831;44.870;37.336;2023-08-31T01:07:52;24.26;72.74
76104;HTU21D;64831;44.870;37.336;2023-08-31T01:13:02;24.29;73.03
76104;HTU21D;64831;44.870;37.336;2023-08-31T01:15:31;24.25;72.73
76104;HTU21D;64831;44.870;37.336;2023-08-31T01:17:58;24.16;72.64
76104;HTU21D;64831;44.870;37.336;2023-08-31T01:20:40;24.11;72.67
76104;HTU21D;64831;44.870;37.336;2023-08-31T01:23:15;24.08;72.83
76104;HTU21D;64831;44.870;37.336;2023-08-31T01:25:42;24.11;73.10
76104;HTU21D;64831;44.870;37.336;2023-08-31T01:28:10;24.15;73.03
76104;HTU21D;64831;44.870;37.336;2023-08-31T01:30:36;24.19;73.17
76104;HTU21D;64831;44.870;37.336;2023-08-31T01:33:03;24.25;72.97
76104;HTU21D;64831;44.870;37.336;2023-08-31T01:35:36;24.28;73.33
76104;HTU21D;64831;44.870;37.336;2023-08-31T01:38:04;24.26;73.27
76104;HTU21D;64831;44.870;37.336;2023-08-31T01:40:52;24.27;73.19
76104;HTU21D;64831;44.870;37.336;2023-08-31T01:43:21;24.26;73.11
76104;HTU21D;64831;44.870;37.336;2023-08-31T01:45:48;24.26;73.06
76104;HTU21D;64831;44.870;37.336;2023-08-31T01:48:14;24.29;73.19
76104;HTU21D;64831;44.870;37.336;2023-08-31T01:50:41;24.30;73.06
76104;HTU21D;64831;44.870;37.336;2023-08-31T01:53:07;24.34;73.15
76104;HTU21D;64831;44.870;37.336;2023-08-31T01:55:33;24.36;73.18
76104;HTU21D;64831;44.870;37.336;2023-08-31T01:57:59;24.36;73.10
76104;HTU21D;64831;44.870;37.336;2023-08-31T02:00:27;24.38;72.96
76104;HTU21D;64831;44.870;37.336;2023-08-31T02:02:55;24.40;72.86
76104;HTU21D;64831;44.870;37.336;2023-08-31T02:05:21;24.42;72.97
76104;HTU21D;64831;44.870;37.336;2023-08-31T02:07:47;24.44;72.74
76104;HTU21D;64831;44.870;37.336;2023-08-31T02:10:13;24.43;72.80
76104;HTU21D;64831;44.870;37.336;2023-08-31T02:12:42;24.41;72.82
76104;HTU21D;64831;44.870;37.336;2023-08-31T02:15:08;24.39;72.87
76104;HTU21D;64831;44.870;37.336;2023-08-31T02:17:36;24.36;72.93
76104;HTU21D;64831;44.870;37.336;2023-08-31T02:20:03;24.34;73.08
76104;HTU21D;64831;44.870;37.336;2023-08-31T02:22:39;24.30;73.30
76104;HTU21D;64831;44.870;37.336;2023-08-31T02:25:06;24.29;73.58
76104;HTU21D;64831;44.870;37.336;2023-08-31T02:27:32;24.29;73.41
76104;HTU21D;64831;44.870;37.336;2023-08-31T02:29:57;24.30;73.57
76104;HTU21D;64831;44.870;37.336;2023-08-31T02:32:23;24.30;73.90
76104;HTU21D;64831;44.870;37.336;2023-08-31T02:34:50;24.30;73.76
76104;HTU21D;64831;44.870;37.336;2023-08-31T02:37:16;24.32;73.81
76104;HTU21D;64831;44.870;37.336;2023-08-31T02:39:43;24.33;73.96
76104;HTU21D;64831;44.870;37.336;2023-08-31T02:42:09;24.32;74.12
76104;HTU21D;64831;44.870;37.336;2023-08-31T02:44:35;24.33;74.00
76104;HTU21D;64831;44.870;37.336;2023-08-31T02:47:01;24.34;74.06
76104;HTU21D;64831;44.870;37.336;2023-08-31T02:49:27;24.36;73.99
76104;HTU21D;64831;44.870;37.336;2023-08-31T02:51:55;24.38;74.23
76104;HTU21D;64831;44.870;37.336;2023-08-31T02:54:21;24.38;74.12
76104;HTU21D;64831;44.870;37.336;2023-08-31T02:56:47;24.39;74.26
76104;HTU21D;64831;44.870;37.336;2023-08-31T02:59:13;24.41;74.19
76104;HTU21D;64831;44.870;37.336;2023-08-31T03:01:39;24.44;74.15
76104;HTU21D;64831;44.870;37.336;2023-08-31T03:04:05;24.47;74.24
76104;HTU21D;64831;44.870;37.336;2023-08-31T03:06:34;24.49;74.33
76104;HTU21D;64831;44.870;37.336;2023-08-31T03:09:00;24.50;74.13
76104;HTU21D;64831;44.870;37.336;2023-08-31T03:11:27;24.50;74.17
76104;HTU21D;64831;44.870;37.336;2023-08-31T03:13:53;24.54;74.24
76104;HTU21D;64831;44.870;37.336;2023-08-31T03:16:19;24.57;74.45
76104;HTU21D;64831;44.870;37.336;2023-08-31T03:18:45;24.59;74.25
76104;HTU21D;64831;44.870;37.336;2023-08-31T03:21:11;24.62;74.09
76104;HTU21D;64831;44.870;37.336;2023-08-31T03:23:38;24.68;74.18
76104;HTU21D;64831;44.870;37.336;2023-08-31T03:26:08;24.71;74.22
76104;HTU21D;64831;44.870;37.336;2023-08-31T03:28:34;24.79;74.17
76104;HTU21D;64831;44.870;37.336;2023-08-31T03:31:00;24.82;74.15
76104;HTU21D;64831;44.870;37.336;2023-08-31T03:33:27;24.84;74.03
76104;HTU21D;64831;44.870;37.336;2023-08-31T03:36:00;24.87;73.77
76104;HTU21D;64831;44.870;37.336;2023-08-31T03:38:26;24.92;73.49
76104;HTU21D;64831;44.870;37.336;2023-08-31T03:40:54;24.95;73.30
76104;HTU21D;64831;44.870;37.336;2023-08-31T03:43:20;25.01;73.22
76104;HTU21D;64831;44.870;37.336;2023-08-31T03:45:46;25.05;73.15
76104;HTU21D;64831;44.870;37.336;2023-08-31T03:48:12;25.10;73.12
76104;HTU21D;64831;44.870;37.336;2023-08-31T03:50:39;25.15;73.39
76104;HTU21D;64831;44.870;37.336;2023-08-31T03:53:05;25.20;73.50
76104;HTU21D;64831;44.870;37.336;2023-08-31T03:55:31;25.25;73.52
76104;HTU21D;64831;44.870;37.336;2023-08-31T03:57:57;25.29;73.66
76104;HTU21D;64831;44.870;37.336;2023-08-31T04:00:24;25.30;73.59
76104;HTU21D;64831;44.870;37.336;2023-08-31T04:02:49;25.33;73.70
76104;HTU21D;64831;44.870;37.336;2023-08-31T04:05:20;25.35;73.54
76104;HTU21D;64831;44.870;37.336;2023-08-31T04:07:46;25.38;73.73
76104;HTU21D;64831;44.870;37.336;2023-08-31T04:10:12;25.40;73.78
76104;HTU21D;64831;44.870;37.336;2023-08-31T04:12:38;25.46;73.93
76104;HTU21D;64831;44.870;37.336;2023-08-31T04:15:05;25.49;74.12
76104;HTU21D;64831;44.870;37.336;2023-08-31T04:17:31;25.54;74.12
76104;HTU21D;64831;44.870;37.336;2023-08-31T04:19:57;25.63;74.09
76104;HTU21D;64831;44.870;37.336;2023-08-31T04:22:23;25.68;73.99
76104;HTU21D;64831;44.870;37.336;2023-08-31T04:24:49;25.78;74.11
76104;HTU21D;64831;44.870;37.336;2023-08-31T04:27:15;25.86;74.13
76104;HTU21D;64831;44.870;37.336;2023-08-31T04:29:41;25.93;73.88
76104;HTU21D;64831;44.870;37.336;2023-08-31T04:32:07;25.98;73.61
76104;HTU21D;64831;44.870;37.336;2023-08-31T04:34:33;26.04;73.34
76104;HTU21D;64831;44.870;37.336;2023-08-31T04:36:59;26.09;73.11
76104;HTU21D;64831;44.870;37.336;2023-08-31T04:39:25;26.12;72.88
76104;HTU21D;64831;44.870;37.336;2023-08-31T04:41:52;26.15;72.70
76104;HTU21D;64831;44.870;37.336;2023-08-31T04:44:18;26.21;72.54
76104;HTU21D;64831;44.870;37.336;2023-08-31T04:46:44;26.22;72.40
76104;HTU21D;64831;44.870;37.336;2023-08-31T04:49:10;26.26;72.41
76104;HTU21D;64831;44.870;37.336;2023-08-31T04:51:36;26.32;72.41
76104;HTU21D;64831;44.870;37.336;2023-08-31T04:54:07;26.37;72.30
76104;HTU21D;64831;44.870;37.336;2023-08-31T04:56:33;26.47;72.32
76104;HTU21D;64831;44.870;37.336;2023-08-31T04:59:00;26.55;72.32
76104;HTU21D;64831;44.870;37.336;2023-08-31T05:01:26;26.65;72.22
76104;HTU21D;64831;44.870;37.336;2023-08-31T05:03:52;26.73;72.05
76104;HTU21D;64831;44.870;37.336;2023-08-31T05:06:18;26.81;71.84
76104;HTU21D;64831;44.870;37.336;2023-08-31T05:08:44;26.92;71.74
76104;HTU21D;64831;44.870;37.336;2023-08-31T05:11:10;27.04;71.53
76104;HTU21D;64831;44.870;37.336;2023-08-31T05:13:36;27.09;71.34
76104;HTU21D;64831;44.870;37.336;2023-08-31T05:16:03;27.19;71.32
76104;HTU21D;64831;44.870;37.336;2023-08-31T05:18:29;27.28;71.10
76104;HTU21D;64831;44.870;37.336;2023-08-31T05:20:55;27.38;70.89
76104;HTU21D;64831;44.870;37.336;2023-08-31T05:23:21;27.50;70.69
76104;HTU21D;64831;44.870;37.336;2023-08-31T05:25:47;27.60;70.44
76104;HTU21D;64831;44.870;37.336;2023-08-31T05:28:13;27.71;70.13
76104;HTU21D;64831;44.870;37.336;2023-08-31T05:30:49;27.83;69.90
76104;HTU21D;64831;44.870;37.336;2023-08-31T05:33:17;27.93;69.65
76104;HTU21D;64831;44.870;37.336;2023-08-31T05:35:43;28.12;69.16
76104;HTU21D;64831;44.870;37.336;2023-08-31T05:38:09;28.38;68.80
76104;HTU21D;64831;44.870;37.336;2023-08-31T05:40:38;28.86;69.58
76104;HTU21D;64831;44.870;37.336;2023-08-31T05:43:05;29.73;68.91
76104;HTU21D;64831;44.870;37.336;2023-08-31T05:45:34;30.76;66.28
76104;HTU21D;64831;44.870;37.336;2023-08-31T05:48:00;31.74;63.25
76104;HTU21D;64831;44.870;37.336;2023-08-31T05:50:27;32.60;61.15
76104;HTU21D;64831;44.870;37.336;2023-08-31T05:52:54;33.40;58.95
76104;HTU21D;64831;44.870;37.336;2023-08-31T05:55:20;34.12;57.03
76104;HTU21D;64831;44.870;37.336;2023-08-31T05:57:46;34.75;53.71
76104;HTU21D;64831;44.870;37.336;2023-08-31T06:00:12;35.08;53.27
76104;HTU21D;64831;44.870;37.336;2023-08-31T06:02:39;35.49;52.47
76104;HTU21D;64831;44.870;37.336;2023-08-31T06:05:05;35.94;50.63
76104;HTU21D;64831;44.870;37.336;2023-08-31T06:07:34;36.31;50.00
76104;HTU21D;64831;44.870;37.336;2023-08-31T06:10:03;36.60;48.41
76104;HTU21D;64831;44.870;37.336;2023-08-31T06:12:39;36.78;47.79
76104;HTU21D;64831;44.870;37.336;2023-08-31T06:15:08;36.95;47.03
76104;HTU21D;64831;44.870;37.336;2023-08-31T06:17:34;37.18;46.81
76104;HTU21D;64831;44.870;37.336;2023-08-31T06:20:01;37.42;46.28
76104;HTU21D;64831;44.870;37.336;2023-08-31T06:22:30;37.70;45.44
76104;HTU21D;64831;44.870;37.336;2023-08-31T06:24:56;37.77;44.94
76104;HTU21D;64831;44.870;37.336;2023-08-31T06:27:24;37.63;44.47
76104;HTU21D;64831;44.870;37.336;2023-08-31T06:29:50;37.55;44.45
76104;HTU21D;64831;44.870;37.336;2023-08-31T06:32:17;37.37;44.74
76104;HTU21D;64831;44.870;37.336;2023-08-31T06:34:44;37.34;45.05
76104;HTU21D;64831;44.870;37.336;2023-08-31T06:37:10;37.21;44.89
76104;HTU21D;64831;44.870;37.336;2023-08-31T06:39:36;37.22;45.21
76104;HTU21D;64831;44.870;37.336;2023-08-31T06:42:02;37.44;45.19
76104;HTU21D;64831;44.870;37.336;2023-08-31T06:44:30;37.61;44.85
76104;HTU21D;64831;44.870;37.336;2023-08-31T06:46:56;37.75;44.40
76104;HTU21D;64831;44.870;37.336;2023-08-31T06:49:22;37.82;44.22
76104;HTU21D;64831;44.870;37.336;2023-08-31T06:51:49;37.88;44.09
76104;HTU21D;64831;44.870;37.336;2023-08-31T06:54:15;37.56;44.30
76104;HTU21D;64831;44.870;37.336;2023-08-31T06:56:41;37.13;45.09
76104;HTU21D;64831;44.870;37.336;2023-08-31T06:59:07;37.06;45.33
76104;HTU21D;64831;44.870;37.336;2023-08-31T07:01:33;36.42;46.33
76104;HTU21D;64831;44.870;37.336;2023-08-31T07:03:59;36.15;46.96
76104;HTU21D;64831;44.870;37.336;2023-08-31T07:06:25;36.08;47.38
76104;HTU21D;64831;44.870;37.336;2023-08-31T07:08:51;35.95;47.59
76104;HTU21D;64831;44.870;37.336;2023-08-31T07:11:17;35.71;48.11
76104;HTU21D;64831;44.870;37.336;2023-08-31T07:13:43;35.86;47.71
76104;HTU21D;64831;44.870;37.336;2023-08-31T07:16:09;35.74;47.82
76104;HTU21D;64831;44.870;37.336;2023-08-31T07:18:36;36.04;47.68
76104;HTU21D;64831;44.870;37.336;2023-08-31T07:21:02;35.57;48.45
76104;HTU21D;64831;44.870;37.336;2023-08-31T07:23:30;35.38;48.84
76104;HTU21D;64831;44.870;37.336;2023-08-31T07:25:57;35.47;48.66
76104;HTU21D;64831;44.870;37.336;2023-08-31T07:28:27;35.30;49.34
76104;HTU21D;64831;44.870;37.336;2023-08-31T07:31:03;35.31;48.98
76104;HTU21D;64831;44.870;37.336;2023-08-31T07:33:30;35.40;49.05
76104;HTU21D;64831;44.870;37.336;2023-08-31T07:36:00;35.25;49.33
76104;HTU21D;64831;44.870;37.336;2023-08-31T07:38:27;35.49;49.08
76104;HTU21D;64831;44.870;37.336;2023-08-31T07:40:53;35.54;49.00
76104;HTU21D;64831;44.870;37.336;2023-08-31T07:43:19;35.41;49.01
76104;HTU21D;64831;44.870;37.336;2023-08-31T07:45:45;35.43;48.99
76104;HTU21D;64831;44.870;37.336;2023-08-31T07:48:11;35.53;48.82
76104;HTU21D;64831;44.870;37.336;2023-08-31T07:50:40;35.60;48.07
76104;HTU21D;64831;44.870;37.336;2023-08-31T07:53:07;35.59;48.14
76104;HTU21D;64831;44.870;37.336;2023-08-31T07:55:33;35.47;48.44
76104;HTU21D;64831;44.870;37.336;2023-08-31T07:57:59;35.73;48.38
76104;HTU21D;64831;44.870;37.336;2023-08-31T08:00:25;36.27;47.44
76104;HTU21D;64831;44.870;37.336;2023-08-31T08:02:50;35.90;46.87
76104;HTU21D;64831;44.870;37.336;2023-08-31T08:05:16;35.93;46.65
76104;HTU21D;64831;44.870;37.336;2023-08-31T08:07:42;36.18;46.41
76104;HTU21D;64831;44.870;37.336;2023-08-31T08:10:09;35.86;46.64
76104;HTU21D;64831;44.870;37.336;2023-08-31T08:12:39;35.84;46.79
76104;HTU21D;64831;44.870;37.336;2023-08-31T08:15:06;36.24;46.38
76104;HTU21D;64831;44.870;37.336;2023-08-31T08:17:35;35.99;46.61
76104;HTU21D;64831;44.870;37.336;2023-08-31T08:20:02;36.07;46.57
76104;HTU21D;64831;44.870;37.336;2023-08-31T08:22:29;36.39;46.14
76104;HTU21D;64831;44.870;37.336;2023-08-31T08:24:55;36.31;45.94
76104;HTU21D;64831;44.870;37.336;2023-08-31T08:27:20;36.51;45.46
76104;HTU21D;64831;44.870;37.336;2023-08-31T08:29:46;36.84;45.00
76104;HTU21D;64831;44.870;37.336;2023-08-31T08:32:13;37.01;44.60
76104;HTU21D;64831;44.870;37.336;2023-08-31T08:34:39;36.64;45.00
76104;HTU21D;64831;44.870;37.336;2023-08-31T08:37:05;36.97;44.58
76104;HTU21D;64831;44.870;37.336;2023-08-31T08:39:31;37.10;44.45
76104;HTU21D;64831;44.870;37.336;2023-08-31T08:41:58;36.78;44.78
76104;HTU21D;64831;44.870;37.336;2023-08-31T08:44:33;36.66;45.12
76104;HTU21D;64831;44.870;37.336;2023-08-31T08:47:01;36.29;45.99
76104;HTU21D;64831;44.870;37.336;2023-08-31T08:49:32;35.96;46.70
76104;HTU21D;64831;44.870;37.336;2023-08-31T08:52:02;35.88;46.64
76104;HTU21D;64831;44.870;37.336;2023-08-31T08:54:28;35.88;46.35
76104;HTU21D;64831;44.870;37.336;2023-08-31T08:56:54;35.33;47.22
76104;HTU21D;64831;44.870;37.336;2023-08-31T08:59:20;34.62;49.09
76104;HTU21D;64831;44.870;37.336;2023-08-31T09:01:46;34.96;48.63
76104;HTU21D;64831;44.870;37.336;2023-08-31T09:04:12;34.66;49.40
76104;HTU21D;64831;44.870;37.336;2023-08-31T09:06:38;34.69;49.09
76104;HTU21D;64831;44.870;37.336;2023-08-31T09:09:05;34.64;49.06
76104;HTU21D;64831;44.870;37.336;2023-08-31T09:11:30;34.74;48.71
76104;HTU21D;64831;44.870;37.336;2023-08-31T09:13:57;34.81;48.20
76104;HTU21D;64831;44.870;37.336;2023-08-31T09:16:28;35.08;47.67
76104;HTU21D;64831;44.870;37.336;2023-08-31T09:18:55;35.42;46.92
76104;HTU21D;64831;44.870;37.336;2023-08-31T09:21:22;35.59;46.59
76104;HTU21D;64831;44.870;37.336;2023-08-31T09:23:56;35.57;46.22
76104;HTU21D;64831;44.870;37.336;2023-08-31T09:26:25;35.63;46.53
76104;HTU21D;64831;44.870;37.336;2023-08-31T09:28:51;35.56;46.63
76104;HTU21D;64831;44.870;37.336;2023-08-31T09:31:18;35.64;46.71
76104;HTU21D;64831;44.870;37.336;2023-08-31T09:33:50;35.43;46.99
76104;HTU21D;64831;44.870;37.336;2023-08-31T09:36:17;35.74;46.35
76104;HTU21D;64831;44.870;37.336;2023-08-31T09:38:44;35.79;46.22
76104;HTU21D;64831;44.870;37.336;2023-08-31T09:41:10;35.56;46.57
76104;HTU21D;64831;44.870;37.336;2023-08-31T09:43:37;35.38;47.10
76104;HTU21D;64831;44.870;37.336;2023-08-31T09:46:04;35.23;47.57
76104;HTU21D;64831;44.870;37.336;2023-08-31T09:48:31;34.93;48.48
76104;HTU21D;64831;44.870;37.336;2023-08-31T09:50:57;35.06;48.36
76104;HTU21D;64831;44.870;37.336;2023-08-31T09:53:29;35.20;47.91
76104;HTU21D;64831;44.870;37.336;2023-08-31T09:55:56;34.56;49.24
76104;HTU21D;64831;44.870;37.336;2023-08-31T09:58:23;34.69;49.00
76104;HTU21D;64831;44.870;37.336;2023-08-31T10:00:51;34.84;48.57
76104;HTU21D;64831;44.870;37.336;2023-08-31T10:03:17;34.62;49.01
76104;HTU21D;64831;44.870;37.336;2023-08-31T10:05:44;34.37;49.51
76104;HTU21D;64831;44.870;37.336;2023-08-31T10:08:11;34.05;50.23
76104;HTU21D;64831;44.870;37.336;2023-08-31T10:10:37;33.67;50.88
76104;HTU21D;64831;44.870;37.336;2023-08-31T10:13:04;33.57;51.29
76104;HTU21D;64831;44.870;37.336;2023-08-31T10:15:37;33.53;51.99
76104;HTU21D;64831;44.870;37.336;2023-08-31T10:18:07;33.19;52.51
76104;HTU21D;64831;44.870;37.336;2023-08-31T10:20:33;33.26;52.01
76104;HTU21D;64831;44.870;37.336;2023-08-31T10:23:06;33.22;52.31
76104;HTU21D;64831;44.870;37.336;2023-08-31T10:26:02;33.14;52.75
76104;HTU21D;64831;44.870;37.336;2023-08-31T10:28:29;33.15;52.25
76104;HTU21D;64831;44.870;37.336;2023-08-31T10:31:09;33.08;52.78
76104;HTU21D;64831;44.870;37.336;2023-08-31T10:33:42;33.09;52.93
76104;HTU21D;64831;44.870;37.336;2023-08-31T10:36:14;32.94;53.27
76104;HTU21D;64831;44.870;37.336;2023-08-31T10:41:24;32.66;54.08
76104;HTU21D;64831;44.870;37.336;2023-08-31T10:43:56;32.52;54.62
76104;HTU21D;64831;44.870;37.336;2023-08-31T10:46:29;32.35;55.24
76104;HTU21D;64831;44.870;37.336;2023-08-31T10:48:59;32.39;55.07
76104;HTU21D;64831;44.870;37.336;2023-08-31T10:51:31;32.20;55.67
76104;HTU21D;64831;44.870;37.336;2023-08-31T10:54:08;32.28;55.51
76104;HTU21D;64831;44.870;37.336;2023-08-31T10:57:01;32.25;55.86
76104;HTU21D;64831;44.870;37.336;2023-08-31T10:59:53;31.96;55.91
76104;HTU21D;64831;44.870;37.336;2023-08-31T11:02:39;32.00;55.95
76104;HTU21D;64831;44.870;37.336;2023-08-31T11:05:11;32.08;55.70
76104;HTU21D;64831;44.870;37.336;2023-08-31T11:07:44;32.09;56.03
76104;HTU21D;64831;44.870;37.336;2023-08-31T11:12:53;31.93;56.00
76104;HTU21D;64831;44.870;37.336;2023-08-31T11:15:23;32.01;56.24
76104;HTU21D;64831;44.870;37.336;2023-08-31T11:17:50;31.94;56.59
76104;HTU21D;64831;44.870;37.336;2023-08-31T11:20:19;31.89;56.48
76104;HTU21D;64831;44.870;37.336;2023-08-31T11:22:47;31.93;56.13
76104;HTU21D;64831;44.870;37.336;2023-08-31T11:25:17;31.81;56.32
76104;HTU21D;64831;44.870;37.336;2023-08-31T11:27:57;31.72;57.07
76104;HTU21D;64831;44.870;37.336;2023-08-31T11:30:25;31.73;56.68
76104;HTU21D;64831;44.870;37.336;2023-08-31T11:32:52;31.55;57.10
76104;HTU21D;64831;44.870;37.336;2023-08-31T11:35:19;31.54;57.43
76104;HTU21D;64831;44.870;37.336;2023-08-31T11:37:50;31.55;57.70
76104;HTU21D;64831;44.870;37.336;2023-08-31T11:40:16;31.63;57.21
76104;HTU21D;64831;44.870;37.336;2023-08-31T11:42:42;31.60;57.10
76104;HTU21D;64831;44.870;37.336;2023-08-31T11:45:10;31.65;56.68
76104;HTU21D;64831;44.870;37.336;2023-08-31T11:47:37;31.67;56.64
76104;HTU21D;64831;44.870;37.336;2023-08-31T11:50:06;31.74;56.43
76104;HTU21D;64831;44.870;37.336;2023-08-31T11:52:32;31.74;56.36
76104;HTU21D;64831;44.870;37.336;2023-08-31T11:54:59;31.63;55.86
76104;HTU21D;64831;44.870;37.336;2023-08-31T11:57:26;31.64;55.66
76104;HTU21D;64831;44.870;37.336;2023-08-31T11:59:52;31.49;56.29
76104;HTU21D;64831;44.870;37.336;2023-08-31T12:02:19;31.39;56.56
76104;HTU21D;64831;44.870;37.336;2023-08-31T12:04:45;31.41;56.38
76104;HTU21D;64831;44.870;37.336;2023-08-31T12:07:21;31.35;56.97
76104;HTU21D;64831;44.870;37.336;2023-08-31T12:09:50;31.41;56.75
76104;HTU21D;64831;44.870;37.336;2023-08-31T12:12:25;31.46;56.64
76104;HTU21D;64831;44.870;37.336;2023-08-31T12:14:53;31.55;56.42
76104;HTU21D;64831;44.870;37.336;2023-08-31T12:17:19;31.55;56.25
76104;HTU21D;64831;44.870;37.336;2023-08-31T12:19:45;31.52;56.23
76104;HTU21D;64831;44.870;37.336;2023-08-31T12:22:11;31.53;56.15
76104;HTU21D;64831;44.870;37.336;2023-08-31T12:24:40;31.53;55.98
76104;HTU21D;64831;44.870;37.336;2023-08-31T12:27:07;31.50;56.12
76104;HTU21D;64831;44.870;37.336;2023-08-31T12:29:33;31.51;56.34
76104;HTU21D;64831;44.870;37.336;2023-08-31T12:32:00;31.51;56.51
76104;HTU21D;64831;44.870;37.336;2023-08-31T12:34:25;31.55;56.39
76104;HTU21D;64831;44.870;37.336;2023-08-31T12:36:52;31.61;56.58
76104;HTU21D;64831;44.870;37.336;2023-08-31T12:39:18;31.67;56.45
76104;HTU21D;64831;44.870;37.336;2023-08-31T12:41:44;31.74;56.39
76104;HTU21D;64831;44.870;37.336;2023-08-31T12:44:10;31.80;56.29
76104;HTU21D;64831;44.870;37.336;2023-08-31T12:46:36;31.80;56.34
76104;HTU21D;64831;44.870;37.336;2023-08-31T12:49:02;31.69;56.66
76104;HTU21D;64831;44.870;37.336;2023-08-31T12:51:32;31.51;57.21
76104;HTU21D;64831;44.870;37.336;2023-08-31T12:53:58;31.29;57.93
76104;HTU21D;64831;44.870;37.336;2023-08-31T12:56:24;30.76;59.87
76104;HTU21D;64831;44.870;37.336;2023-08-31T12:58:51;30.68;59.99
76104;HTU21D;64831;44.870;37.336;2023-08-31T13:01:18;30.44;61.04
76104;HTU21D;64831;44.870;37.336;2023-08-31T13:03:45;30.52;60.53
76104;HTU21D;64831;44.870;37.336;2023-08-31T13:06:11;30.59;60.29
76104;HTU21D;64831;44.870;37.336;2023-08-31T13:08:37;30.69;60.04
76104;HTU21D;64831;44.870;37.336;2023-08-31T13:11:03;30.82;59.55
76104;HTU21D;64831;44.870;37.336;2023-08-31T13:13:30;30.92;59.12
76104;HTU21D;64831;44.870;37.336;2023-08-31T13:15:59;30.92;59.08
76104;HTU21D;64831;44.870;37.336;2023-08-31T13:18:25;30.82;59.38
76104;HTU21D;64831;44.870;37.336;2023-08-31T13:20:55;30.79;59.61
76104;HTU21D;64831;44.870;37.336;2023-08-31T13:23:21;30.77;59.68
76104;HTU21D;64831;44.870;37.336;2023-08-31T13:25:48;30.70;59.97
76104;HTU21D;64831;44.870;37.336;2023-08-31T13:28:16;30.63;60.11
76104;HTU21D;64831;44.870;37.336;2023-08-31T13:30:42;30.49;60.59
76104;HTU21D;64831;44.870;37.336;2023-08-31T13:33:08;30.40;60.73
76104;HTU21D;64831;44.870;37.336;2023-08-31T13:35:34;30.33;61.10
76104;HTU21D;64831;44.870;37.336;2023-08-31T13:38:01;30.22;61.63
76104;HTU21D;64831;44.870;37.336;2023-08-31T13:40:29;30.19;61.74
76104;HTU21D;64831;44.870;37.336;2023-08-31T13:42:59;30.11;62.21
76104;HTU21D;64831;44.870;37.336;2023-08-31T13:45:32;30.13;61.98
76104;HTU21D;64831;44.870;37.336;2023-08-31T13:47:59;30.16;61.97
76104;HTU21D;64831;44.870;37.336;2023-08-31T13:50:26;30.20;61.82
76104;HTU21D;64831;44.870;37.336;2023-08-31T13:52:52;30.22;61.62
76104;HTU21D;64831;44.870;37.336;2023-08-31T13:55:19;30.26;61.38
76104;HTU21D;64831;44.870;37.336;2023-08-31T13:57:45;30.23;61.49
76104;HTU21D;64831;44.870;37.336;2023-08-31T14:00:12;30.23;61.52
76104;HTU21D;64831;44.870;37.336;2023-08-31T14:02:39;30.25;61.28
76104;HTU21D;64831;44.870;37.336;2023-08-31T14:05:06;30.23;61.28
76104;HTU21D;64831;44.870;37.336;2023-08-31T14:07:32;30.10;61.52
76104;HTU21D;64831;44.870;37.336;2023-08-31T14:09:58;29.98;62.08
76104;HTU21D;64831;44.870;37.336;2023-08-31T14:12:24;29.88;62.42
76104;HTU21D;64831;44.870;37.336;2023-08-31T14:14:52;29.85;62.44
76104;HTU21D;64831;44.870;37.336;2023-08-31T14:17:18;29.79;62.79
76104;HTU21D;64831;44.870;37.336;2023-08-31T14:19:44;29.72;63.22
76104;HTU21D;64831;44.870;37.336;2023-08-31T14:22:10;29.64;63.44
76104;HTU21D;64831;44.870;37.336;2023-08-31T14:24:37;29.59;63.66
76104;HTU21D;64831;44.870;37.336;2023-08-31T14:27:04;29.56;63.68
76104;HTU21D;64831;44.870;37.336;2023-08-31T14:29:30;29.54;63.83
76104;HTU21D;64831;44.870;37.336;2023-08-31T14:31:56;29.52;64.03
76104;HTU21D;64831;44.870;37.336;2023-08-31T14:34:22;29.44;64.42
76104;HTU21D;64831;44.870;37.336;2023-08-31T14:36:50;29.35;64.66
76104;HTU21D;64831;44.870;37.336;2023-08-31T14:39:17;29.33;64.69
76104;HTU21D;64831;44.870;37.336;2023-08-31T14:41:43;29.31;64.68
76104;HTU21D;64831;44.870;37.336;2023-08-31T14:44:09;29.27;65.04
76104;HTU21D;64831;44.870;37.336;2023-08-31T14:46:35;29.23;65.06
76104;HTU21D;64831;44.870;37.336;2023-08-31T14:49:01;29.16;65.62
76104;HTU21D;64831;44.870;37.336;2023-08-31T14:51:27;29.11;65.62
76104;HTU21D;64831;44.870;37.336;2023-08-31T14:53:53;29.06;65.53
76104;HTU21D;64831;44.870;37.336;2023-08-31T14:56:19;29.06;65.41
76104;HTU21D;64831;44.870;37.336;2023-08-31T14:58:44;29.03;65.85
76104;HTU21D;64831;44.870;37.336;2023-08-31T15:01:10;28.98;65.93
76104;HTU21D;64831;44.870;37.336;2023-08-31T15:03:36;28.95;66.02
76104;HTU21D;64831;44.870;37.336;2023-08-31T15:06:03;28.95;65.96
76104;HTU21D;64831;44.870;37.336;2023-08-31T15:08:39;28.93;66.24
76104;HTU21D;64831;44.870;37.336;2023-08-31T15:11:06;28.93;65.99
76104;HTU21D;64831;44.870;37.336;2023-08-31T15:13:32;28.89;66.27
76104;HTU21D;64831;44.870;37.336;2023-08-31T15:15:58;28.84;66.32